Terminal Aerodrome Forecast
Issued by NWS Wilmington, NC

Home | Current Version | Previous Version | Text Only | Print | Product List | Glossary On
Versions: 1 2 3 4 5 6 7 8 9 10 11 12 13 14 15 16 17 18 19 20 21 22 23 24 25 26 27 28 29 30
000
FTUS42 KILM 231700
TAFFLO
TAF
KFLO 231720Z 2318/2418 24006KT P6SM VCSH SCT030
     FM240100 21007KT P6SM FEW030 SCT200
     FM240600 VRB03KT 5SM BR SKC
     FM241300 23008KT P6SM SCT030=

USA.gov is the U.S. government's official web portal to all federal, state and local government web resources and services.